sensor_id;sensor_type;location;lat;lon;timestamp;P1;durP1;ratioP1;P2;durP2;ratioP2
51525;SDS011;37611;51.794;21.590;2022-10-22T00:02:25;19.00;;;12.80;;
51525;SDS011;37611;51.794;21.590;2022-10-22T00:06:28;18.70;;;13.00;;
51525;SDS011;37611;51.794;21.590;2022-10-22T00:10:30;18.70;;;13.20;;
51525;SDS011;37611;51.794;21.590;2022-10-22T00:14:31;20.90;;;13.70;;
51525;SDS011;37611;51.794;21.590;2022-10-22T00:18:34;19.50;;;13.50;;
51525;SDS011;37611;51.794;21.590;2022-10-22T00:22:36;20.30;;;14.90;;
51525;SDS011;37611;51.794;21.590;2022-10-22T00:26:38;20.50;;;14.70;;
51525;SDS011;37611;51.794;21.590;2022-10-22T00:30:40;18.80;;;13.10;;
51525;SDS011;37611;51.794;21.590;2022-10-22T00:34:42;19.50;;;13.00;;
51525;SDS011;37611;51.794;21.590;2022-10-22T00:38:44;18.90;;;13.20;;
51525;SDS011;37611;51.794;21.590;2022-10-22T00:42:45;18.10;;;13.60;;
51525;SDS011;37611;51.794;21.590;2022-10-22T00:46:47;18.00;;;12.80;;
51525;SDS011;37611;51.794;21.590;2022-10-22T00:50:50;17.20;;;12.80;;
51525;SDS011;37611;51.794;21.590;2022-10-22T00:54:58;17.40;;;13.10;;
51525;SDS011;37611;51.794;21.590;2022-10-22T00:59:02;19.70;;;14.30;;
51525;SDS011;37611;51.794;21.590;2022-10-22T01:03:04;17.80;;;13.50;;
51525;SDS011;37611;51.794;21.590;2022-10-22T01:07:09;14.70;;;12.70;;
51525;SDS011;37611;51.794;21.590;2022-10-22T01:11:23;20.70;;;13.30;;
51525;SDS011;37611;51.794;21.590;2022-10-22T01:15:47;18.20;;;13.40;;
51525;SDS011;37611;51.794;21.590;2022-10-22T01:20:02;19.20;;;13.30;;
51525;SDS011;37611;51.794;21.590;2022-10-22T01:33:02;21.70;;;14.00;;
51525;SDS011;37611;51.794;21.590;2022-10-22T01:37:07;18.70;;;14.20;;
51525;SDS011;37611;51.794;21.590;2022-10-22T01:41:12;21.60;;;14.80;;
51525;SDS011;37611;51.794;21.590;2022-10-22T01:45:14;19.10;;;14.40;;
51525;SDS011;37611;51.794;21.590;2022-10-22T01:49:19;19.30;;;14.00;;
51525;SDS011;37611;51.794;21.590;2022-10-22T01:57:48;20.10;;;14.20;;
51525;SDS011;37611;51.794;21.590;2022-10-22T02:06:22;19.70;;;14.20;;
51525;SDS011;37611;51.794;21.590;2022-10-22T02:10:26;19.10;;;14.10;;
51525;SDS011;37611;51.794;21.590;2022-10-22T02:14:30;20.70;;;13.80;;
51525;SDS011;37611;51.794;21.590;2022-10-22T02:18:34;18.50;;;13.60;;
51525;SDS011;37611;51.794;21.590;2022-10-22T02:22:40;18.40;;;13.50;;
51525;SDS011;37611;51.794;21.590;2022-10-22T02:31:01;20.00;;;14.60;;
51525;SDS011;37611;51.794;21.590;2022-10-22T02:35:20;17.60;;;14.10;;
51525;SDS011;37611;51.794;21.590;2022-10-22T02:39:25;20.30;;;15.30;;
51525;SDS011;37611;51.794;21.590;2022-10-22T02:43:28;21.20;;;14.30;;
51525;SDS011;37611;51.794;21.590;2022-10-22T02:47:30;17.70;;;14.60;;
51525;SDS011;37611;51.794;21.590;2022-10-22T02:51:32;17.50;;;14.10;;
51525;SDS011;37611;51.794;21.590;2022-10-22T02:55:33;20.50;;;13.90;;
51525;SDS011;37611;51.794;21.590;2022-10-22T02:59:36;19.90;;;14.70;;
51525;SDS011;37611;51.794;21.590;2022-10-22T03:03:37;17.80;;;13.60;;
51525;SDS011;37611;51.794;21.590;2022-10-22T03:07:39;17.50;;;14.30;;
51525;SDS011;37611;51.794;21.590;2022-10-22T03:11:41;17.90;;;14.00;;
51525;SDS011;37611;51.794;21.590;2022-10-22T03:15:43;22.40;;;14.70;;
51525;SDS011;37611;51.794;21.590;2022-10-22T03:19:44;19.70;;;14.10;;
51525;SDS011;37611;51.794;21.590;2022-10-22T03:23:46;21.60;;;15.10;;
51525;SDS011;37611;51.794;21.590;2022-10-22T03:27:49;22.60;;;16.80;;
51525;SDS011;37611;51.794;21.590;2022-10-22T03:31:54;24.20;;;18.50;;
51525;SDS011;37611;51.794;21.590;2022-10-22T03:35:56;23.50;;;17.00;;
51525;SDS011;37611;51.794;21.590;2022-10-22T03:39:58;24.30;;;16.60;;
51525;SDS011;37611;51.794;21.590;2022-10-22T03:44:00;21.40;;;15.80;;
51525;SDS011;37611;51.794;21.590;2022-10-22T03:48:04;21.90;;;14.80;;
51525;SDS011;37611;51.794;21.590;2022-10-22T03:52:07;17.90;;;14.10;;
51525;SDS011;37611;51.794;21.590;2022-10-22T03:56:11;18.50;;;14.80;;
51525;SDS011;37611;51.794;21.590;2022-10-22T04:00:13;17.80;;;14.90;;
51525;SDS011;37611;51.794;21.590;2022-10-22T04:04:15;17.80;;;15.00;;
51525;SDS011;37611;51.794;21.590;2022-10-22T04:08:17;19.30;;;14.90;;
51525;SDS011;37611;51.794;21.590;2022-10-22T04:12:19;18.30;;;15.40;;
51525;SDS011;37611;51.794;21.590;2022-10-22T04:16:21;21.60;;;16.20;;
51525;SDS011;37611;51.794;21.590;2022-10-22T04:20:23;19.50;;;15.60;;
51525;SDS011;37611;51.794;21.590;2022-10-22T04:24:25;20.90;;;15.10;;
51525;SDS011;37611;51.794;21.590;2022-10-22T04:28:27;19.80;;;15.20;;
51525;SDS011;37611;51.794;21.590;2022-10-22T04:32:29;18.40;;;14.80;;
51525;SDS011;37611;51.794;21.590;2022-10-22T04:36:31;20.40;;;15.10;;
51525;SDS011;37611;51.794;21.590;2022-10-22T04:40:34;17.80;;;15.50;;
51525;SDS011;37611;51.794;21.590;2022-10-22T04:44:36;21.30;;;16.70;;
51525;SDS011;37611;51.794;21.590;2022-10-22T04:48:38;19.90;;;17.00;;
51525;SDS011;37611;51.794;21.590;2022-10-22T04:52:41;23.60;;;17.40;;
51525;SDS011;37611;51.794;21.590;2022-10-22T04:56:43;22.70;;;17.90;;
51525;SDS011;37611;51.794;21.590;2022-10-22T05:00:45;24.30;;;17.70;;
51525;SDS011;37611;51.794;21.590;2022-10-22T05:04:46;23.00;;;18.30;;
51525;SDS011;37611;51.794;21.590;2022-10-22T05:08:51;20.90;;;17.10;;
51525;SDS011;37611;51.794;21.590;2022-10-22T05:12:55;20.60;;;17.50;;
51525;SDS011;37611;51.794;21.590;2022-10-22T05:16:56;18.90;;;16.20;;
51525;SDS011;37611;51.794;21.590;2022-10-22T05:20:59;22.10;;;15.70;;
51525;SDS011;37611;51.794;21.590;2022-10-22T05:25:00;19.30;;;16.80;;
51525;SDS011;37611;51.794;21.590;2022-10-22T05:29:02;21.40;;;16.90;;
51525;SDS011;37611;51.794;21.590;2022-10-22T05:33:04;26.00;;;19.00;;
51525;SDS011;37611;51.794;21.590;2022-10-22T05:37:05;27.70;;;18.40;;
51525;SDS011;37611;51.794;21.590;2022-10-22T05:41:14;25.10;;;18.40;;
51525;SDS011;37611;51.794;21.590;2022-10-22T05:45:18;32.20;;;25.70;;
51525;SDS011;37611;51.794;21.590;2022-10-22T05:49:19;29.60;;;24.40;;
51525;SDS011;37611;51.794;21.590;2022-10-22T05:53:21;31.40;;;24.00;;
51525;SDS011;37611;51.794;21.590;2022-10-22T05:57:23;36.50;;;26.10;;
51525;SDS011;37611;51.794;21.590;2022-10-22T06:01:28;32.80;;;25.30;;
51525;SDS011;37611;51.794;21.590;2022-10-22T06:05:35;31.30;;;24.50;;
51525;SDS011;37611;51.794;21.590;2022-10-22T06:09:38;28.40;;;20.10;;
51525;SDS011;37611;51.794;21.590;2022-10-22T06:13:39;27.40;;;19.00;;
51525;SDS011;37611;51.794;21.590;2022-10-22T06:17:43;27.20;;;20.50;;
51525;SDS011;37611;51.794;21.590;2022-10-22T06:21:45;26.10;;;19.10;;
51525;SDS011;37611;51.794;21.590;2022-10-22T06:25:57;26.20;;;19.20;;
51525;SDS011;37611;51.794;21.590;2022-10-22T06:30:00;31.30;;;26.70;;
51525;SDS011;37611;51.794;21.590;2022-10-22T06:34:02;27.30;;;22.50;;
51525;SDS011;37611;51.794;21.590;2022-10-22T06:38:05;26.00;;;20.60;;
51525;SDS011;37611;51.794;21.590;2022-10-22T06:42:07;22.90;;;18.20;;
51525;SDS011;37611;51.794;21.590;2022-10-22T06:46:09;24.80;;;18.10;;
51525;SDS011;37611;51.794;21.590;2022-10-22T06:50:12;20.20;;;17.50;;
51525;SDS011;37611;51.794;21.590;2022-10-22T06:54:14;24.40;;;18.60;;
51525;SDS011;37611;51.794;21.590;2022-10-22T06:58:16;22.50;;;17.90;;
51525;SDS011;37611;51.794;21.590;2022-10-22T07:02:18;26.30;;;20.90;;
51525;SDS011;37611;51.794;21.590;2022-10-22T07:06:26;21.90;;;17.20;;
51525;SDS011;37611;51.794;21.590;2022-10-22T07:10:49;23.40;;;17.80;;
51525;SDS011;37611;51.794;21.590;2022-10-22T07:15:01;21.00;;;17.60;;
51525;SDS011;37611;51.794;21.590;2022-10-22T07:19:17;21.20;;;17.90;;
51525;SDS011;37611;51.794;21.590;2022-10-22T07:28:55;51.40;;;29.20;;
51525;SDS011;37611;51.794;21.590;2022-10-22T07:38:19;23.50;;;19.40;;
51525;SDS011;37611;51.794;21.590;2022-10-22T07:42:39;26.60;;;20.60;;
51525;SDS011;37611;51.794;21.590;2022-10-22T07:46:56;24.40;;;19.40;;
51525;SDS011;37611;51.794;21.590;2022-10-22T07:51:10;27.00;;;20.00;;
51525;SDS011;37611;51.794;21.590;2022-10-22T08:00:11;21.90;;;17.80;;
51525;SDS011;37611;51.794;21.590;2022-10-22T08:04:14;21.80;;;17.10;;
51525;SDS011;37611;51.794;21.590;2022-10-22T08:08:16;19.90;;;16.90;;
51525;SDS011;37611;51.794;21.590;2022-10-22T08:12:18;20.60;;;16.60;;
51525;SDS011;37611;51.794;21.590;2022-10-22T08:16:19;20.00;;;16.20;;
51525;SDS011;37611;51.794;21.590;2022-10-22T08:20:21;20.70;;;16.60;;
51525;SDS011;37611;51.794;21.590;2022-10-22T08:24:23;19.90;;;17.60;;
51525;SDS011;37611;51.794;21.590;2022-10-22T08:28:27;23.20;;;18.70;;
51525;SDS011;37611;51.794;21.590;2022-10-22T08:32:31;24.50;;;19.40;;
51525;SDS011;37611;51.794;21.590;2022-10-22T08:36:33;20.10;;;16.60;;
51525;SDS011;37611;51.794;21.590;2022-10-22T08:40:36;22.20;;;18.10;;
51525;SDS011;37611;51.794;21.590;2022-10-22T08:48:46;23.80;;;17.70;;
51525;SDS011;37611;51.794;21.590;2022-10-22T08:52:52;25.90;;;19.80;;
51525;SDS011;37611;51.794;21.590;2022-10-22T09:01:12;28.70;;;21.80;;
51525;SDS011;37611;51.794;21.590;2022-10-22T09:09:23;21.10;;;18.50;;
51525;SDS011;37611;51.794;21.590;2022-10-22T09:13:28;18.90;;;15.20;;
51525;SDS011;37611;51.794;21.590;2022-10-22T09:17:48;21.10;;;16.40;;
51525;SDS011;37611;51.794;21.590;2022-10-22T09:26:24;18.20;;;15.10;;
51525;SDS011;37611;51.794;21.590;2022-10-22T09:30:28;15.60;;;13.30;;
51525;SDS011;37611;51.794;21.590;2022-10-22T09:34:34;15.90;;;13.50;;
51525;SDS011;37611;51.794;21.590;2022-10-22T09:38:41;18.30;;;15.70;;
51525;SDS011;37611;51.794;21.590;2022-10-22T09:42:47;22.60;;;17.80;;
51525;SDS011;37611;51.794;21.590;2022-10-22T09:46:50;20.70;;;16.00;;
51525;SDS011;37611;51.794;21.590;2022-10-22T09:50:59;24.60;;;18.70;;
51525;SDS011;37611;51.794;21.590;2022-10-22T09:55:22;37.10;;;24.00;;
51525;SDS011;37611;51.794;21.590;2022-10-22T09:59:27;32.60;;;22.80;;
51525;SDS011;37611;51.794;21.590;2022-10-22T10:03:33;24.10;;;20.20;;
51525;SDS011;37611;51.794;21.590;2022-10-22T10:07:35;22.50;;;18.10;;
51525;SDS011;37611;51.794;21.590;2022-10-22T10:11:43;23.10;;;19.00;;
51525;SDS011;37611;51.794;21.590;2022-10-22T10:15:52;19.20;;;16.00;;
51525;SDS011;37611;51.794;21.590;2022-10-22T10:24:21;17.90;;;15.10;;
51525;SDS011;37611;51.794;21.590;2022-10-22T10:33:04;21.90;;;15.40;;
51525;SDS011;37611;51.794;21.590;2022-10-22T10:37:24;25.20;;;17.80;;
51525;SDS011;37611;51.794;21.590;2022-10-22T10:54:39;21.00;;;14.70;;
51525;SDS011;37611;51.794;21.590;2022-10-22T11:07:34;20.10;;;15.90;;
51525;SDS011;37611;51.794;21.590;2022-10-22T11:11:47;22.60;;;17.00;;
51525;SDS011;37611;51.794;21.590;2022-10-22T11:28:41;21.50;;;17.40;;
51525;SDS011;37611;51.794;21.590;2022-10-22T11:32:55;21.90;;;17.10;;
51525;SDS011;37611;51.794;21.590;2022-10-22T11:37:00;19.20;;;16.50;;
51525;SDS011;37611;51.794;21.590;2022-10-22T11:41:14;20.60;;;17.20;;
51525;SDS011;37611;51.794;21.590;2022-10-22T11:49:42;19.30;;;17.10;;
51525;SDS011;37611;51.794;21.590;2022-10-22T11:53:46;18.30;;;16.20;;
51525;SDS011;37611;51.794;21.590;2022-10-22T11:58:01;17.60;;;14.40;;
51525;SDS011;37611;51.794;21.590;2022-10-22T12:02:44;16.40;;;13.70;;
51525;SDS011;37611;51.794;21.590;2022-10-22T12:06:59;20.00;;;12.10;;
51525;SDS011;37611;51.794;21.590;2022-10-22T12:15:20;18.60;;;13.30;;
51525;SDS011;37611;51.794;21.590;2022-10-22T12:19:30;15.20;;;13.40;;
51525;SDS011;37611;51.794;21.590;2022-10-22T12:23:36;18.10;;;12.40;;
51525;SDS011;37611;51.794;21.590;2022-10-22T12:27:38;16.70;;;12.40;;
51525;SDS011;37611;51.794;21.590;2022-10-22T12:31:41;16.60;;;13.20;;
51525;SDS011;37611;51.794;21.590;2022-10-22T12:35:45;19.70;;;13.10;;
51525;SDS011;37611;51.794;21.590;2022-10-22T12:39:49;14.20;;;12.30;;
51525;SDS011;37611;51.794;21.590;2022-10-22T12:43:57;17.50;;;10.80;;
51525;SDS011;37611;51.794;21.590;2022-10-22T12:48:02;16.50;;;12.90;;
51525;SDS011;37611;51.794;21.590;2022-10-22T12:52:07;20.60;;;15.80;;
51525;SDS011;37611;51.794;21.590;2022-10-22T12:56:23;17.00;;;14.50;;
51525;SDS011;37611;51.794;21.590;2022-10-22T13:00:31;17.10;;;13.70;;
51525;SDS011;37611;51.794;21.590;2022-10-22T13:04:35;18.20;;;15.50;;
51525;SDS011;37611;51.794;21.590;2022-10-22T13:08:38;20.60;;;16.90;;
51525;SDS011;37611;51.794;21.590;2022-10-22T13:12:43;18.50;;;15.70;;
51525;SDS011;37611;51.794;21.590;2022-10-22T13:21:20;18.90;;;15.10;;
51525;SDS011;37611;51.794;21.590;2022-10-22T13:29:39;16.10;;;12.30;;
51525;SDS011;37611;51.794;21.590;2022-10-22T13:33:43;15.80;;;13.00;;
51525;SDS011;37611;51.794;21.590;2022-10-22T13:37:47;15.30;;;12.80;;
51525;SDS011;37611;51.794;21.590;2022-10-22T13:41:49;12.40;;;10.90;;
51525;SDS011;37611;51.794;21.590;2022-10-22T13:45:53;14.50;;;12.80;;
51525;SDS011;37611;51.794;21.590;2022-10-22T13:49:58;31.50;;;27.00;;
51525;SDS011;37611;51.794;21.590;2022-10-22T13:54:03;19.10;;;14.90;;
51525;SDS011;37611;51.794;21.590;2022-10-22T13:58:14;33.30;;;22.80;;
51525;SDS011;37611;51.794;21.590;2022-10-22T14:02:18;26.00;;;18.50;;
51525;SDS011;37611;51.794;21.590;2022-10-22T14:06:22;19.90;;;15.10;;
51525;SDS011;37611;51.794;21.590;2022-10-22T14:10:25;23.40;;;17.30;;
51525;SDS011;37611;51.794;21.590;2022-10-22T14:14:27;19.90;;;15.80;;
51525;SDS011;37611;51.794;21.590;2022-10-22T14:18:29;13.60;;;12.20;;
51525;SDS011;37611;51.794;21.590;2022-10-22T14:22:33;15.30;;;13.50;;
51525;SDS011;37611;51.794;21.590;2022-10-22T14:26:35;16.90;;;14.00;;
51525;SDS011;37611;51.794;21.590;2022-10-22T14:30:37;19.70;;;16.70;;
51525;SDS011;37611;51.794;21.590;2022-10-22T14:34:40;29.90;;;23.20;;
51525;SDS011;37611;51.794;21.590;2022-10-22T14:38:42;74.50;;;50.50;;
51525;SDS011;37611;51.794;21.590;2022-10-22T14:42:46;79.00;;;53.80;;
51525;SDS011;37611;51.794;21.590;2022-10-22T14:46:48;53.40;;;38.90;;
51525;SDS011;37611;51.794;21.590;2022-10-22T14:50:54;34.40;;;28.50;;
51525;SDS011;37611;51.794;21.590;2022-10-22T14:54:56;30.20;;;25.20;;
51525;SDS011;37611;51.794;21.590;2022-10-22T14:58:57;24.60;;;20.90;;
51525;SDS011;37611;51.794;21.590;2022-10-22T15:02:59;22.70;;;19.00;;
51525;SDS011;37611;51.794;21.590;2022-10-22T15:07:01;21.40;;;18.20;;
51525;SDS011;37611;51.794;21.590;2022-10-22T15:11:07;28.70;;;23.00;;
51525;SDS011;37611;51.794;21.590;2022-10-22T15:15:11;24.00;;;19.00;;
51525;SDS011;37611;51.794;21.590;2022-10-22T15:19:13;23.40;;;19.20;;
51525;SDS011;37611;51.794;21.590;2022-10-22T15:23:15;29.20;;;22.20;;
51525;SDS011;37611;51.794;21.590;2022-10-22T15:27:16;31.30;;;27.90;;
51525;SDS011;37611;51.794;21.590;2022-10-22T15:31:40;39.80;;;30.50;;
51525;SDS011;37611;51.794;21.590;2022-10-22T15:35:46;37.20;;;29.90;;
51525;SDS011;37611;51.794;21.590;2022-10-22T15:39:48;34.10;;;27.70;;
51525;SDS011;37611;51.794;21.590;2022-10-22T15:43:50;33.90;;;23.00;;
51525;SDS011;37611;51.794;21.590;2022-10-22T15:47:53;30.70;;;23.20;;
51525;SDS011;37611;51.794;21.590;2022-10-22T15:51:55;38.90;;;28.70;;
51525;SDS011;37611;51.794;21.590;2022-10-22T15:55:56;25.80;;;21.20;;
51525;SDS011;37611;51.794;21.590;2022-10-22T15:59:58;24.00;;;20.80;;
51525;SDS011;37611;51.794;21.590;2022-10-22T16:04:00;24.40;;;20.50;;
51525;SDS011;37611;51.794;21.590;2022-10-22T16:08:05;38.80;;;27.30;;
51525;SDS011;37611;51.794;21.590;2022-10-22T16:12:07;37.60;;;28.50;;
51525;SDS011;37611;51.794;21.590;2022-10-22T16:16:08;61.60;;;44.30;;
51525;SDS011;37611;51.794;21.590;2022-10-22T16:20:10;64.30;;;46.60;;
51525;SDS011;37611;51.794;21.590;2022-10-22T16:24:12;56.90;;;44.90;;
51525;SDS011;37611;51.794;21.590;2022-10-22T16:28:14;51.90;;;37.00;;
51525;SDS011;37611;51.794;21.590;2022-10-22T16:32:15;40.00;;;31.70;;
51525;SDS011;37611;51.794;21.590;2022-10-22T16:36:18;31.10;;;27.60;;
51525;SDS011;37611;51.794;21.590;2022-10-22T16:40:21;33.10;;;28.00;;
51525;SDS011;37611;51.794;21.590;2022-10-22T16:44:23;36.60;;;28.70;;
51525;SDS011;37611;51.794;21.590;2022-10-22T16:48:25;40.70;;;33.00;;
51525;SDS011;37611;51.794;21.590;2022-10-22T16:52:26;38.90;;;30.80;;
51525;SDS011;37611;51.794;21.590;2022-10-22T16:56:28;36.90;;;30.20;;
51525;SDS011;37611;51.794;21.590;2022-10-22T17:00:30;44.90;;;31.70;;
51525;SDS011;37611;51.794;21.590;2022-10-22T17:04:33;43.00;;;33.90;;
51525;SDS011;37611;51.794;21.590;2022-10-22T17:08:35;41.10;;;31.70;;
51525;SDS011;37611;51.794;21.590;2022-10-22T17:12:37;41.20;;;31.10;;
51525;SDS011;37611;51.794;21.590;2022-10-22T17:16:39;39.90;;;31.60;;
51525;SDS011;37611;51.794;21.590;2022-10-22T17:20:41;43.40;;;32.00;;
51525;SDS011;37611;51.794;21.590;2022-10-22T17:24:43;36.30;;;28.90;;
51525;SDS011;37611;51.794;21.590;2022-10-22T17:28:45;36.30;;;27.00;;
51525;SDS011;37611;51.794;21.590;2022-10-22T17:32:48;31.20;;;24.50;;
51525;SDS011;37611;51.794;21.590;2022-10-22T17:36:49;29.20;;;20.80;;
51525;SDS011;37611;51.794;21.590;2022-10-22T17:40:51;26.60;;;19.20;;
51525;SDS011;37611;51.794;21.590;2022-10-22T17:44:53;21.60;;;17.50;;
51525;SDS011;37611;51.794;21.590;2022-10-22T17:48:56;24.90;;;19.60;;
51525;SDS011;37611;51.794;21.590;2022-10-22T17:53:00;28.00;;;19.40;;
51525;SDS011;37611;51.794;21.590;2022-10-22T17:57:02;39.30;;;34.60;;
51525;SDS011;37611;51.794;21.590;2022-10-22T18:01:04;26.50;;;21.70;;
51525;SDS011;37611;51.794;21.590;2022-10-22T18:05:06;26.40;;;20.00;;
51525;SDS011;37611;51.794;21.590;2022-10-22T18:09:10;24.90;;;20.20;;
51525;SDS011;37611;51.794;21.590;2022-10-22T18:13:14;26.10;;;20.90;;
51525;SDS011;37611;51.794;21.590;2022-10-22T18:17:16;29.70;;;23.90;;
51525;SDS011;37611;51.794;21.590;2022-10-22T18:21:18;23.90;;;20.50;;
51525;SDS011;37611;51.794;21.590;2022-10-22T18:25:20;31.20;;;25.80;;
51525;SDS011;37611;51.794;21.590;2022-10-22T18:29:22;46.90;;;41.00;;
51525;SDS011;37611;51.794;21.590;2022-10-22T18:33:24;37.80;;;33.80;;
51525;SDS011;37611;51.794;21.590;2022-10-22T18:37:26;59.60;;;53.70;;
51525;SDS011;37611;51.794;21.590;2022-10-22T18:41:28;29.10;;;24.00;;
51525;SDS011;37611;51.794;21.590;2022-10-22T18:45:31;67.80;;;45.30;;
51525;SDS011;37611;51.794;21.590;2022-10-22T18:49:33;140.10;;;85.60;;
51525;SDS011;37611;51.794;21.590;2022-10-22T18:53:35;69.50;;;57.90;;
51525;SDS011;37611;51.794;21.590;2022-10-22T18:57:38;25.70;;;21.80;;
51525;SDS011;37611;51.794;21.590;2022-10-22T19:01:40;29.60;;;24.50;;
51525;SDS011;37611;51.794;21.590;2022-10-22T19:05:46;31.40;;;26.40;;
51525;SDS011;37611;51.794;21.590;2022-10-22T19:09:53;28.30;;;23.20;;
51525;SDS011;37611;51.794;21.590;2022-10-22T19:13:55;26.70;;;21.10;;
51525;SDS011;37611;51.794;21.590;2022-10-22T19:17:57;32.90;;;29.50;;
51525;SDS011;37611;51.794;21.590;2022-10-22T19:21:59;29.60;;;26.50;;
51525;SDS011;37611;51.794;21.590;2022-10-22T19:26:02;32.70;;;25.00;;
51525;SDS011;37611;51.794;21.590;2022-10-22T19:30:12;29.30;;;24.30;;
51525;SDS011;37611;51.794;21.590;2022-10-22T19:34:14;32.30;;;24.10;;
51525;SDS011;37611;51.794;21.590;2022-10-22T19:38:16;30.80;;;23.60;;
51525;SDS011;37611;51.794;21.590;2022-10-22T19:42:18;28.80;;;24.20;;
51525;SDS011;37611;51.794;21.590;2022-10-22T19:46:21;31.50;;;23.80;;
51525;SDS011;37611;51.794;21.590;2022-10-22T19:50:26;28.10;;;21.70;;
51525;SDS011;37611;51.794;21.590;2022-10-22T19:54:27;36.90;;;28.80;;
51525;SDS011;37611;51.794;21.590;2022-10-22T19:58:29;32.80;;;26.00;;
51525;SDS011;37611;51.794;21.590;2022-10-22T20:02:31;47.20;;;39.60;;
51525;SDS011;37611;51.794;21.590;2022-10-22T20:06:33;71.30;;;61.20;;
51525;SDS011;37611;51.794;21.590;2022-10-22T20:10:35;135.40;;;120.90;;
51525;SDS011;37611;51.794;21.590;2022-10-22T20:14:36;48.50;;;41.90;;
51525;SDS011;37611;51.794;21.590;2022-10-22T20:18:39;30.90;;;26.60;;
51525;SDS011;37611;51.794;21.590;2022-10-22T20:22:41;31.50;;;28.30;;
51525;SDS011;37611;51.794;21.590;2022-10-22T20:26:44;25.20;;;21.00;;
51525;SDS011;37611;51.794;21.590;2022-10-22T20:30:46;33.50;;;30.00;;
51525;SDS011;37611;51.794;21.590;2022-10-22T20:34:48;33.20;;;29.80;;
51525;SDS011;37611;51.794;21.590;2022-10-22T20:38:50;29.20;;;26.10;;
51525;SDS011;37611;51.794;21.590;2022-10-22T20:42:52;40.80;;;36.40;;
51525;SDS011;37611;51.794;21.590;2022-10-22T20:46:54;88.10;;;66.30;;
51525;SDS011;37611;51.794;21.590;2022-10-22T20:50:56;43.10;;;37.70;;
51525;SDS011;37611;51.794;21.590;2022-10-22T20:54:59;54.30;;;40.50;;
51525;SDS011;37611;51.794;21.590;2022-10-22T20:59:01;31.30;;;28.00;;
51525;SDS011;37611;51.794;21.590;2022-10-22T21:03:08;24.40;;;21.90;;
51525;SDS011;37611;51.794;21.590;2022-10-22T21:07:10;32.20;;;29.00;;
51525;SDS011;37611;51.794;21.590;2022-10-22T21:11:11;24.40;;;21.80;;
51525;SDS011;37611;51.794;21.590;2022-10-22T21:15:13;20.00;;;17.80;;
51525;SDS011;37611;51.794;21.590;2022-10-22T21:19:16;23.80;;;21.50;;
51525;SDS011;37611;51.794;21.590;2022-10-22T21:23:19;18.80;;;16.80;;
51525;SDS011;37611;51.794;21.590;2022-10-22T21:27:20;17.00;;;15.30;;
51525;SDS011;37611;51.794;21.590;2022-10-22T21:31:22;15.60;;;14.00;;
51525;SDS011;37611;51.794;21.590;2022-10-22T21:35:26;22.00;;;19.70;;
51525;SDS011;37611;51.794;21.590;2022-10-22T21:39:29;20.00;;;17.90;;
51525;SDS011;37611;51.794;21.590;2022-10-22T21:43:31;19.30;;;17.20;;
51525;SDS011;37611;51.794;21.590;2022-10-22T21:47:32;19.30;;;17.20;;
51525;SDS011;37611;51.794;21.590;2022-10-22T21:51:34;18.50;;;16.60;;
51525;SDS011;37611;51.794;21.590;2022-10-22T21:55:38;17.10;;;15.30;;
51525;SDS011;37611;51.794;21.590;2022-10-22T21:59:41;17.60;;;15.80;;
51525;SDS011;37611;51.794;21.590;2022-10-22T22:03:44;20.40;;;18.30;;
51525;SDS011;37611;51.794;21.590;2022-10-22T22:07:49;22.50;;;20.10;;
51525;SDS011;37611;51.794;21.590;2022-10-22T22:11:51;20.20;;;18.20;;
51525;SDS011;37611;51.794;21.590;2022-10-22T22:15:53;15.30;;;13.80;;
51525;SDS011;37611;51.794;21.590;2022-10-22T22:19:59;20.60;;;18.60;;
51525;SDS011;37611;51.794;21.590;2022-10-22T22:24:01;17.80;;;15.90;;
51525;SDS011;37611;51.794;21.590;2022-10-22T22:28:04;18.30;;;16.50;;
51525;SDS011;37611;51.794;21.590;2022-10-22T22:32:06;23.00;;;17.30;;
51525;SDS011;37611;51.794;21.590;2022-10-22T22:36:08;18.10;;;16.10;;
51525;SDS011;37611;51.794;21.590;2022-10-22T22:40:10;19.70;;;15.90;;
51525;SDS011;37611;51.794;21.590;2022-10-22T22:44:12;18.70;;;16.30;;
51525;SDS011;37611;51.794;21.590;2022-10-22T22:48:15;17.80;;;15.50;;
51525;SDS011;37611;51.794;21.590;2022-10-22T22:52:17;17.90;;;16.00;;
51525;SDS011;37611;51.794;21.590;2022-10-22T22:56:21;18.20;;;16.30;;
51525;SDS011;37611;51.794;21.590;2022-10-22T23:00:24;19.40;;;14.90;;
51525;SDS011;37611;51.794;21.590;2022-10-22T23:04:26;18.00;;;16.10;;
51525;SDS011;37611;51.794;21.590;2022-10-22T23:08:30;17.00;;;15.00;;
51525;SDS011;37611;51.794;21.590;2022-10-22T23:12:32;18.10;;;16.00;;
51525;SDS011;37611;51.794;21.590;2022-10-22T23:16:34;16.90;;;15.10;;
51525;SDS011;37611;51.794;21.590;2022-10-22T23:20:38;18.10;;;15.50;;
51525;SDS011;37611;51.794;21.590;2022-10-22T23:24:39;19.00;;;16.60;;
51525;SDS011;37611;51.794;21.590;2022-10-22T23:28:41;19.50;;;16.90;;
51525;SDS011;37611;51.794;21.590;2022-10-22T23:32:43;20.70;;;17.00;;
51525;SDS011;37611;51.794;21.590;2022-10-22T23:36:44;22.00;;;17.10;;
51525;SDS011;37611;51.794;21.590;2022-10-22T23:40:52;20.80;;;17.00;;
51525;SDS011;37611;51.794;21.590;2022-10-22T23:44:57;20.60;;;17.80;;
51525;SDS011;37611;51.794;21.590;2022-10-22T23:48:59;20.90;;;18.80;;
51525;SDS011;37611;51.794;21.590;2022-10-22T23:53:01;20.90;;;18.50;;
51525;SDS011;37611;51.794;21.590;2022-10-22T23:57:03;20.30;;;17.80;;
